Time;durP1;ratioP1;P1;durP2;ratioP2;P2;SDS_P1;SDS_P2;PMS_P1;PMS_P2;Temp;Humidity;BMP_temperature;BMP_pressure;BME280_temperature;BME280_humidity;BME280_pressure;Samples;Min_cycle;Max_cycle;Signal;HPM_P1;HPM_P2
2022/07/25 00:02:31;;;;;;;6.05;5.55;;;;;;;27.43;36.96;100083.63;9901578;29;20232;-77
2022/07/25 00:07:35;;;;;;;6.80;6.00;;;;;;;27.25;36.98;100080.88;9881294;29;20232;-77
2022/07/25 00:12:38;;;;;;;5.68;5.18;;;;;;;27.00;36.79;100086.00;9901255;30;20289;-78
2022/07/25 00:17:40;;;;;;;5.95;4.93;;;;;;;28.29;34.18;100069.25;9888162;29;20236;-78
2022/07/25 00:22:42;;;;;;;5.97;5.03;;;;;;;27.26;36.19;100068.16;9891461;30;20245;-78
2022/07/25 00:27:44;;;;;;;5.82;5.28;;;;;;;27.36;35.77;100058.66;9919121;29;20329;-78
2022/07/25 00:32:47;;;;;;;5.82;5.32;;;;;;;27.28;35.73;100045.59;9893577;29;20309;-77
2022/07/25 00:37:49;;;;;;;5.72;4.78;;;;;;;27.24;35.75;100038.28;9910849;29;20228;-78
2022/07/25 00:42:51;;;;;;;6.65;5.93;;;;;;;27.15;35.17;100041.59;9916333;29;20236;-78
2022/07/25 00:47:53;;;;;;;6.25;5.20;;;;;;;27.25;35.02;100031.28;9907092;29;20268;-78
2022/07/25 00:52:56;;;;;;;4.93;4.53;;;;;;;27.28;35.09;100031.25;9903023;29;20959;-78
2022/07/25 00:57:59;;;;;;;7.55;5.10;;;;;;;28.04;33.66;100018.56;9901561;29;20233;-78
2022/07/25 01:03:01;;;;;;;5.18;4.50;;;;;;;28.60;32.65;100016.22;9910027;29;20450;-78
2022/07/25 01:08:04;;;;;;;5.03;4.63;;;;;;;28.58;32.31;100012.94;9905135;29;20641;-78
2022/07/25 01:13:06;;;;;;;6.03;5.32;;;;;;;29.24;31.56;100015.25;9903193;29;20583;-78
2022/07/25 01:18:09;;;;;;;5.10;4.63;;;;;;;28.87;31.97;100002.66;9906930;29;20556;-78
2022/07/25 01:23:12;;;;;;;5.57;5.07;;;;;;;27.33;34.06;100004.94;9904574;29;20644;-78
2022/07/25 01:28:14;;;;;;;8.63;5.38;;;;;;;27.27;34.63;100000.91;9907506;29;20712;-78
2022/07/25 01:33:17;;;;;;;5.65;5.15;;;;;;;27.33;34.58;99995.53;9904781;29;20265;-78
2022/07/25 01:38:19;;;;;;;5.50;4.82;;;;;;;27.10;34.73;99993.28;9926765;29;20240;-78
2022/07/25 01:43:22;;;;;;;6.93;5.22;;;;;;;28.41;32.89;99986.09;9905447;29;20580;-78
2022/07/25 01:48:24;;;;;;;5.82;5.13;;;;;;;28.41;33.07;99983.22;9903366;29;20321;-78
2022/07/25 01:53:26;;;;;;;5.43;4.82;;;;;;;28.62;32.51;99984.94;9909595;29;20237;-78
2022/07/25 01:58:29;;;;;;;5.53;4.88;;;;;;;28.84;32.09;99977.63;9906963;29;20606;-79
2022/07/25 02:03:31;;;;;;;5.68;4.60;;;;;;;28.88;33.04;99978.41;9916223;29;20233;-79
2022/07/25 02:08:34;;;;;;;6.15;4.68;;;;;;;27.96;34.99;99973.91;9921226;29;20277;-79
2022/07/25 02:13:36;;;;;;;5.70;4.80;;;;;;;27.43;38.14;99966.69;9915193;29;20205;-79
2022/07/25 02:18:38;;;;;;;7.07;5.43;;;;;;;27.28;38.13;99970.94;9931746;29;20201;-80
2022/07/25 02:23:42;;;;;;;5.45;5.00;;;;;;;26.60;39.47;99969.88;9917007;29;20240;-79
2022/07/25 02:28:44;;;;;;;6.15;4.97;;;;;;;26.46;40.43;99965.88;9917833;29;20213;-79
2022/07/25 02:33:47;;;;;;;6.22;5.63;;;;;;;26.67;40.49;99947.69;9911534;29;20241;-78
2022/07/25 02:38:49;;;;;;;5.47;5.00;;;;;;;26.65;40.62;99950.16;9897400;30;20223;-79
2022/07/25 02:43:52;;;;;;;6.10;5.10;;;;;;;26.57;40.55;99945.72;9901737;29;20205;-78
2022/07/25 02:48:54;;;;;;;6.65;5.68;;;;;;;26.40;41.16;99935.16;9924291;29;20224;-78
2022/07/25 02:53:56;;;;;;;5.65;5.15;;;;;;;26.26;41.45;99932.34;9902963;30;20209;-78
2022/07/25 02:59:09;;;;;;;6.47;4.93;;;;;;;26.19;41.08;99926.69;9911371;30;20197;-78
2022/07/25 03:04:12;;;;;;;5.97;5.38;;;;;;;26.51;40.32;99921.56;9908089;30;20214;-78
2022/07/25 03:09:17;;;;;;;5.65;5.03;;;;;;;26.08;41.40;99923.88;9904870;30;20302;-78
2022/07/25 03:14:20;;;;;;;6.90;5.47;;;;;;;26.02;41.60;99923.50;9917975;29;20280;-78
2022/07/25 03:19:22;;;;;;;5.57;5.07;;;;;;;26.22;40.39;99914.34;9915720;29;20252;-79
2022/07/25 03:24:24;;;;;;;5.60;4.65;;;;;;;26.82;39.08;99908.22;9910284;29;20266;-79
2022/07/25 03:29:27;;;;;;;6.57;5.38;;;;;;;27.57;36.87;99902.56;9902323;30;20560;-78
2022/07/25 03:34:29;;;;;;;6.20;5.57;;;;;;;27.83;34.74;99892.38;9903460;29;20321;-78
2022/07/25 03:39:31;;;;;;;7.90;5.00;;;;;;;27.95;34.15;99894.69;9902522;29;20274;-78
2022/07/25 03:44:34;;;;;;;5.68;4.60;;;;;;;27.97;34.03;99883.56;9907411;29;20304;-78
2022/07/25 03:49:36;;;;;;;8.82;4.65;;;;;;;27.58;34.16;99886.97;9903869;30;20282;-79
2022/07/25 03:54:39;;;;;;;6.72;4.93;;;;;;;28.31;32.56;99877.75;9903311;30;20607;-78
2022/07/25 03:59:42;;;;;;;5.07;4.57;;;;;;;28.22;32.61;99875.44;9892275;30;20608;-78
2022/07/25 04:04:45;;;;;;;5.75;4.70;;;;;;;28.01;33.15;99864.22;9902481;30;20555;-78
2022/07/25 04:09:47;;;;;;;7.03;4.90;;;;;;;28.21;32.65;99859.44;9904925;29;20252;-81
2022/07/25 04:14:50;;;;;;;6.30;5.25;;;;;;;27.43;34.15;99853.88;9920774;29;20205;-80
2022/07/25 04:19:52;;;;;;;5.97;4.75;;;;;;;27.05;34.72;99850.22;9917856;29;20206;-81
2022/07/25 04:24:54;;;;;;;5.30;4.55;;;;;;;27.66;33.68;99841.72;9909435;30;20200;-79
2022/07/25 04:29:58;;;;;;;4.95;4.45;;;;;;;27.15;34.51;99846.41;9907823;29;20270;-80
2022/07/25 04:35:00;;;;;;;5.78;4.72;;;;;;;27.37;34.05;99835.50;9894511;30;20232;-80
2022/07/25 04:40:04;;;;;;;5.53;3.85;;;;;;;28.06;32.83;99828.41;9903532;29;20247;-80
2022/07/25 04:45:07;;;;;;;5.15;4.47;;;;;;;28.34;33.03;99830.06;9895632;29;20262;-79
2022/07/25 04:50:09;;;;;;;5.32;4.70;;;;;;;28.53;32.28;99821.53;9906660;29;20256;-80
2022/07/25 04:55:12;;;;;;;5.57;4.93;;;;;;;27.82;33.84;99814.00;9926389;29;20267;-80
2022/07/25 05:00:14;;;;;;;5.03;4.47;;;;;;;27.96;33.71;99818.72;9904968;30;20198;-80
2022/07/25 05:05:18;;;;;;;5.10;4.60;;;;;;;27.93;34.03;99805.22;9906712;30;20262;-80
2022/07/25 05:10:24;;;;;;;5.10;4.60;;;;;;;28.40;33.70;99808.19;9878464;30;20574;-80
2022/07/25 05:15:27;;;;;;;5.78;4.30;;;;;;;28.31;33.55;99814.50;9910279;29;20259;-79
2022/07/25 05:20:29;;;;;;;11.63;10.48;;;;;;;28.29;33.37;99793.97;9913511;30;20531;-78
2022/07/25 05:25:31;;;;;;;6.50;5.80;;;;;;;28.20;33.94;99799.47;9922553;29;20205;-78
2022/07/25 05:30:34;;;;;;;7.07;6.38;;;;;;;28.20;33.66;99796.59;9912896;29;20256;-78
2022/07/25 05:35:41;;;;;;;5.50;5.00;;;;;;;29.58;32.14;99788.25;9914133;29;20700;-78
2022/07/25 05:40:44;;;;;;;6.53;5.90;;;;;;;28.88;33.45;99796.25;9907022;29;20713;-79
2022/07/25 05:45:46;;;;;;;8.77;5.35;;;;;;;29.05;33.96;99789.34;9907230;29;20305;-79
2022/07/25 05:50:49;;;;;;;4.35;3.97;;;;;;;29.10;34.12;99785.94;9919431;29;20528;-79
2022/07/25 05:55:51;;;;;;;5.10;4.60;;;;;;;29.16;33.90;99786.25;9917291;29;20204;-79
2022/07/25 06:00:53;;;;;;;6.20;4.55;;;;;;;29.95;32.81;99777.53;9908443;30;20237;-79
2022/07/25 06:05:56;;;;;;;4.70;4.30;;;;;;;29.67;33.09;99784.75;9910967;30;20267;-79
2022/07/25 06:10:58;;;;;;;6.50;4.60;;;;;;;29.82;32.14;99777.44;9922185;29;20378;-79
2022/07/25 06:16:01;;;;;;;7.63;5.28;;;;;;;29.65;32.41;99770.78;9908805;30;20201;-79
2022/07/25 06:21:05;;;;;;;5.05;4.63;;;;;;;29.89;31.99;99768.59;9909187;30;20235;-79
2022/07/25 06:26:09;;;;;;;5.70;5.20;;;;;;;29.99;32.10;99761.75;9906903;29;20237;-79
2022/07/25 06:31:11;;;;;;;6.05;5.45;;;;;;;29.86;32.57;99760.03;9905946;29;20294;-79
2022/07/25 06:36:13;;;;;;;6.43;4.93;;;;;;;29.60;32.08;99765.53;9891393;29;20232;-79
2022/07/25 06:41:16;;;;;;;5.47;4.30;;;;;;;29.98;32.74;99763.03;9912404;29;20198;-79
2022/07/25 06:46:18;;;;;;;5.60;4.93;;;;;;;30.06;31.84;99757.91;9907714;29;20236;-80
2022/07/25 06:51:21;;;;;;;5.40;4.90;;;;;;;29.53;32.74;99750.50;9894548;30;20260;-80
2022/07/25 06:56:24;;;;;;;8.93;4.32;;;;;;;29.48;32.41;99748.94;9924745;29;20201;-81
2022/07/25 07:01:26;;;;;;;6.78;5.03;;;;;;;29.51;32.34;99736.53;9876306;29;20237;-81
2022/07/25 07:06:29;;;;;;;9.68;5.53;;;;;;;29.63;32.65;99735.03;9891176;29;20205;-80
2022/07/25 07:11:33;;;;;;;6.47;4.70;;;;;;;29.65;33.15;99755.56;9880615;30;20233;-81
2022/07/25 07:16:35;;;;;;;5.03;4.32;;;;;;;29.56;32.60;99755.38;9908046;30;20238;-81
2022/07/25 07:21:37;;;;;;;6.30;5.03;;;;;;;29.53;32.67;99739.78;9903580;30;20298;-80
2022/07/25 07:26:40;;;;;;;5.93;5.25;;;;;;;30.24;31.53;99743.88;9907222;29;20233;-80
2022/07/25 07:31:43;;;;;;;5.88;4.90;;;;;;;30.22;32.13;99736.91;9907320;29;20325;-80
2022/07/25 07:36:46;;;;;;;5.95;5.38;;;;;;;29.56;33.01;99743.84;9881656;29;20244;-79
2022/07/25 07:41:48;;;;;;;5.75;5.05;;;;;;;29.64;32.69;99731.69;9889641;29;20209;-79
2022/07/25 07:46:50;;;;;;;5.22;4.55;;;;;;;29.84;33.81;99737.44;9920198;29;20245;-79
2022/07/25 07:51:52;;;;;;;7.82;4.80;;;;;;;30.31;32.46;99742.88;9903215;29;20264;-79
2022/07/25 07:56:56;;;;;;;6.88;4.72;;;;;;;30.52;32.72;99729.97;9906706;29;20222;-79
2022/07/25 08:01:58;;;;;;;5.72;4.70;;;;;;;29.77;32.77;99737.59;9887510;30;20209;-79
2022/07/25 08:07:01;;;;;;;7.60;5.25;;;;;;;30.28;32.73;99717.81;9900044;29;20240;-79
2022/07/25 08:12:04;;;;;;;7.07;5.05;;;;;;;30.82;32.04;99722.97;9898400;29;20275;-79
2022/07/25 08:17:06;;;;;;;7.05;4.93;;;;;;;30.75;32.26;99726.88;9907680;29;20245;-79
2022/07/25 08:22:13;;;;;;;6.40;5.50;;;;;;;30.89;32.30;99720.69;9898435;29;20552;-80
2022/07/25 08:27:16;;;;;;;5.90;4.35;;;;;;;32.21;30.58;99728.97;9905491;29;20635;-79
2022/07/25 08:32:18;;;;;;;5.90;4.70;;;;;;;31.61;29.87;99728.88;9917594;29;20264;-79
2022/07/25 08:37:20;;;;;;;5.15;4.63;;;;;;;31.66;30.82;99728.31;9889501;29;20235;-79
2022/07/25 08:42:23;;;;;;;5.20;4.70;;;;;;;31.55;30.63;99733.59;9892046;29;20237;-80
2022/07/25 08:47:27;;;;;;;4.78;4.35;;;;;;;32.09;29.76;99732.69;9911123;29;20209;-79
2022/07/25 08:52:33;;;;;;;5.70;5.20;;;;;;;32.07;29.98;99736.06;9906114;29;20260;-79
2022/07/25 08:57:42;;;;;;;5.15;4.65;;;;;;;31.70;30.52;99731.88;9885926;30;20546;-79
2022/07/25 09:03:00;;;;;;;6.22;5.43;;;;;;;32.51;29.62;99727.56;9898816;30;20193;-79
2022/07/25 09:08:15;;;;;;;6.25;4.70;;;;;;;32.20;29.37;99721.56;9910129;30;20660;-79
2022/07/25 09:13:19;;;;;;;5.32;4.47;;;;;;;32.92;29.62;99702.53;9909608;30;20305;-78
2022/07/25 09:18:23;;;;;;;5.97;4.90;;;;;;;32.42;29.71;99715.91;9892475;29;20573;-78
2022/07/25 09:23:26;;;;;;;7.18;4.88;;;;;;;32.06;29.70;99739.41;9908388;30;20279;-81
2022/07/25 09:28:28;;;;;;;6.20;4.72;;;;;;;32.35;30.17;99737.19;9910388;30;20286;-78
2022/07/25 09:33:30;;;;;;;5.20;4.70;;;;;;;32.44;29.98;99719.91;9908543;29;20273;-78
2022/07/25 09:38:33;;;;;;;7.47;5.15;;;;;;;32.35;30.09;99722.72;9892893;30;20258;-80
2022/07/25 09:43:42;;;;;;;6.03;5.43;;;;;;;31.97;30.07;99737.22;9910061;29;20201;-80
2022/07/25 09:48:56;;;;;;;6.47;5.15;;;;;;;32.31;30.25;99750.19;9881996;30;20201;-81
2022/07/25 09:53:59;;;;;;;6.45;4.97;;;;;;;33.27;30.11;99746.75;9895993;29;20253;-81
2022/07/25 09:59:02;;;;;;;10.55;6.30;;;;;;;33.59;28.84;99723.13;9907585;29;20257;-81
2022/07/25 10:04:09;;;;;;;7.13;5.50;;;;;;;32.64;29.69;99744.88;9896908;29;20237;-81
2022/07/25 10:09:12;;;;;;;5.80;5.20;;;;;;;32.99;30.78;99726.22;9895289;29;20490;-78
2022/07/25 10:14:14;;;;;;;7.05;5.88;;;;;;;33.39;29.66;99731.34;9895630;29;20286;-80
2022/07/25 10:19:38;;;;;;;7.90;5.53;;;;;;;33.80;28.78;99733.06;9907216;29;20267;-80
2022/07/25 10:24:44;;;;;;;5.82;5.30;;;;;;;32.63;30.48;99738.28;9913305;30;20201;-80
2022/07/25 10:29:53;;;;;;;9.77;6.10;;;;;;;32.83;30.53;99761.19;9895413;29;20290;-79
2022/07/25 10:34:56;;;;;;;8.18;5.40;;;;;;;31.23;32.43;99768.41;9919436;29;20314;-80
2022/07/25 10:39:58;;;;;;;6.15;5.63;;;;;;;31.68;32.28;99769.09;9906824;29;20555;-80
2022/07/25 10:45:04;;;;;;;9.95;5.60;;;;;;;31.43;32.11;99771.94;9893767;29;20209;-79
2022/07/25 10:50:10;;;;;;;7.03;5.13;;;;;;;31.33;34.11;99773.09;9906899;29;20242;-79
2022/07/25 10:55:34;;;;;;;7.45;5.40;;;;;;;29.99;34.61;99775.38;9908790;29;20201;-79
2022/07/25 11:00:43;;;;;;;7.40;5.38;;;;;;;29.97;34.56;99786.56;9912692;29;20657;-79
2022/07/25 11:05:46;;;;;;;6.90;5.53;;;;;;;30.78;34.47;99754.81;9870494;29;20620;-79
2022/07/25 11:10:51;;;;;;;10.60;5.60;;;;;;;30.81;33.64;99744.44;9902915;29;20257;-79
2022/07/25 11:15:57;;;;;;;6.72;5.80;;;;;;;31.62;32.56;99738.34;9882238;29;20233;-79
2022/07/25 11:21:00;;;;;;;8.57;5.47;;;;;;;31.40;33.00;99755.56;9905017;29;20197;-79
2022/07/25 11:26:10;;;;;;;6.57;5.50;;;;;;;31.53;32.25;99758.47;9900637;29;20301;-80
2022/07/25 11:31:14;;;;;;;7.72;5.80;;;;;;;31.85;32.58;99754.56;9905597;29;20318;-79
2022/07/25 11:36:17;;;;;;;8.15;5.47;;;;;;;31.79;32.38;99782.47;9922786;29;20209;-79
2022/07/25 11:41:28;;;;;;;9.52;5.85;;;;;;;32.01;31.52;99789.19;9889759;29;20238;-80
2022/07/25 11:46:40;;;;;;;16.38;6.70;;;;;;;32.01;32.48;99780.50;9905885;29;20688;-79
2022/07/25 11:51:43;;;;;;;9.48;6.20;;;;;;;32.94;32.12;99775.28;9899293;29;20298;-79
2022/07/25 11:56:46;;;;;;;6.22;5.63;;;;;;;33.59;31.01;99768.69;9906000;29;20692;-79
2022/07/25 12:01:48;;;;;;;8.43;6.47;;;;;;;32.25;32.29;99767.28;9904071;29;20308;-80
2022/07/25 12:06:50;;;;;;;6.22;5.63;;;;;;;33.01;31.54;99781.59;9904981;29;20218;-80
2022/07/25 12:12:01;;;;;;;5.07;4.60;;;;;;;32.58;30.70;99790.97;9902622;29;20329;-80
2022/07/25 12:17:03;;;;;;;5.68;4.65;;;;;;;33.65;30.22;99787.88;9907909;29;20491;-80
2022/07/25 12:22:06;;;;;;;5.20;4.43;;;;;;;32.92;30.13;99806.81;9904165;30;20201;-80
2022/07/25 12:27:09;;;;;;;6.03;4.25;;;;;;;32.23;29.59;99778.50;9920367;29;20225;-79
2022/07/25 12:32:11;;;;;;;6.47;3.88;;;;;;;31.91;31.73;99801.91;9903014;29;20273;-78
2022/07/25 12:37:13;;;;;;;4.80;4.30;;;;;;;31.73;30.49;99806.13;9914224;29;20290;-78
2022/07/25 12:42:15;;;;;;;5.10;3.85;;;;;;;32.53;29.46;99808.13;9894546;29;20640;-80
2022/07/25 12:47:22;;;;;;;4.70;3.95;;;;;;;32.71;29.28;99817.00;9912587;29;20623;-80
2022/07/25 12:52:24;;;;;;;8.18;3.55;;;;;;;32.82;28.72;99814.59;9909815;29;20248;-80
2022/07/25 12:57:27;;;;;;;7.38;3.92;;;;;;;32.83;29.04;99815.41;9913085;29;20290;-80
2022/07/25 13:02:29;;;;;;;3.72;3.10;;;;;;;33.24;29.19;99818.03;9917624;29;20193;-79
2022/07/25 13:07:32;;;;;;;5.50;3.42;;;;;;;33.24;28.56;99817.22;9913741;29;20205;-79
2022/07/25 13:12:34;;;;;;;5.65;3.80;;;;;;;34.46;28.26;99803.31;9921785;29;20217;-79
2022/07/25 13:17:39;;;;;;;6.28;3.70;;;;;;;32.94;29.14;99815.84;9912531;29;20273;-79
2022/07/25 13:22:41;;;;;;;5.43;3.38;;;;;;;33.93;27.64;99806.28;9911075;29;20595;-80
2022/07/25 13:27:43;;;;;;;5.35;3.38;;;;;;;33.16;29.32;99805.88;9910510;29;20266;-79
2022/07/25 13:32:46;;;;;;;7.43;3.15;;;;;;;33.00;30.78;99820.53;9910019;29;20268;-80
2022/07/25 13:37:48;;;;;;;7.57;3.13;;;;;;;32.59;30.49;99817.84;9907151;29;20249;-79
2022/07/25 13:42:51;;;;;;;2.78;2.40;;;;;;;32.90;31.86;99820.94;9918284;29;20269;-79
2022/07/25 13:47:53;;;;;;;6.82;3.10;;;;;;;31.93;31.58;99820.38;9914244;29;20209;-79
2022/07/25 13:53:16;;;;;;;4.97;2.90;;;;;;;32.66;31.34;99812.63;9908675;29;20221;-78
2022/07/25 13:58:18;;;;;;;3.10;2.80;;;;;;;33.09;30.65;99823.50;9904844;29;20232;-79
2022/07/25 14:03:20;;;;;;;4.78;3.25;;;;;;;33.13;30.81;99812.63;9916335;29;20592;-79
2022/07/25 14:08:25;;;;;;;6.68;3.40;;;;;;;33.50;29.87;99804.22;9906211;29;20271;-78
2022/07/25 14:13:27;;;;;;;5.10;3.28;;;;;;;32.75;30.80;99818.53;9912665;29;20221;-80
2022/07/25 14:18:30;;;;;;;6.63;3.15;;;;;;;32.32;31.99;99810.47;9925313;29;20197;-79
2022/07/25 14:23:33;;;;;;;4.78;2.58;;;;;;;32.01;32.70;99818.09;9913853;29;20262;-78
2022/07/25 14:28:35;;;;;;;5.35;2.78;;;;;;;32.63;30.83;99818.53;9893584;29;20237;-79
2022/07/25 14:33:38;;;;;;;2.85;2.45;;;;;;;32.85;30.85;99821.53;9923548;29;20317;-80
2022/07/25 14:38:41;;;;;;;6.78;1.80;;;;;;;32.96;30.63;99825.69;9908943;29;20278;-79
2022/07/25 14:43:43;;;;;;;5.65;2.08;;;;;;;31.96;31.60;99831.03;9902692;29;20229;-80
2022/07/25 14:48:46;;;;;;;6.75;2.00;;;;;;;32.13;30.44;99837.53;9908417;29;20258;-79
2022/07/25 14:53:49;;;;;;;4.82;1.90;;;;;;;32.27;31.35;99842.09;9907441;29;20569;-79
2022/07/25 14:58:54;;;;;;;8.07;2.00;;;;;;;32.84;29.91;99834.38;9894721;29;20213;-77
2022/07/25 15:03:57;;;;;;;3.42;1.90;;;;;;;33.08;30.43;99832.69;9904297;29;20536;-78
2022/07/25 15:08:59;;;;;;;9.90;2.05;;;;;;;32.80;30.12;99835.34;9928209;29;20204;-78
2022/07/25 15:14:01;;;;;;;3.83;1.70;;;;;;;32.38;30.97;99854.94;9925218;29;20257;-78
2022/07/25 15:19:06;;;;;;;1.70;1.52;;;;;;;31.36;31.98;99865.44;9902391;29;20237;-78
2022/07/25 15:24:18;;;;;;;6.80;1.77;;;;;;;31.49;31.50;99862.59;9908171;29;20201;-78
2022/07/25 15:29:20;;;;;;;1.90;1.50;;;;;;;31.65;31.38;99864.63;9914505;29;20259;-77
2022/07/25 15:34:23;;;;;;;6.25;2.38;;;;;;;31.09;33.89;99872.81;9906337;29;20260;-77
2022/07/25 15:39:25;;;;;;;5.22;2.47;;;;;;;31.48;33.52;99883.28;9896581;29;20197;-77
2022/07/25 15:44:27;;;;;;;10.25;3.17;;;;;;;30.74;34.62;99889.78;9910385;29;20248;-78
2022/07/25 15:49:29;;;;;;;3.38;2.75;;;;;;;30.13;35.73;99896.16;9882954;29;20532;-78
2022/07/25 15:54:32;;;;;;;9.05;2.65;;;;;;;30.43;35.76;99894.25;9887365;29;20399;-78
2022/07/25 15:59:34;;;;;;;6.97;2.45;;;;;;;29.86;36.36;99910.75;9911682;29;20206;-78
2022/07/25 16:04:37;;;;;;;6.88;2.50;;;;;;;30.69;34.94;99914.22;9889570;29;20677;-77
2022/07/25 16:09:39;;;;;;;7.00;3.35;;;;;;;30.42;35.39;99933.03;9903613;29;20237;-78
2022/07/25 16:14:41;;;;;;;5.80;3.00;;;;;;;30.15;36.35;99936.09;9907629;30;20248;-78
2022/07/25 16:19:44;;;;;;;4.43;2.80;;;;;;;29.77;36.70;99941.44;9907233;29;20600;-77
2022/07/25 16:24:46;;;;;;;4.90;1.55;;;;;;;29.67;36.45;99951.91;9904540;29;20229;-79
2022/07/25 16:29:48;;;;;;;2.28;1.50;;;;;;;29.46;34.84;99941.59;9888413;30;20258;-79
2022/07/25 16:34:52;;;;;;;5.22;1.92;;;;;;;29.83;34.71;99949.13;9883587;29;20652;-79
2022/07/25 16:39:54;;;;;;;4.28;2.25;;;;;;;30.02;34.04;99944.59;9900297;30;20262;-77
2022/07/25 16:44:56;;;;;;;4.07;1.50;;;;;;;30.27;33.65;99944.88;9899380;30;20231;-78
2022/07/25 16:49:59;;;;;;;2.72;1.15;;;;;;;31.03;32.56;99931.09;9896749;30;20298;-78
2022/07/25 16:55:01;;;;;;;4.95;1.50;;;;;;;29.77;33.21;99947.19;9888400;30;20311;-78
2022/07/25 17:00:06;;;;;;;5.18;1.52;;;;;;;30.09;31.97;99941.59;9891792;30;20896;-78
2022/07/25 17:05:09;;;;;;;4.93;2.15;;;;;;;30.30;31.42;99938.22;9892262;29;20289;-80
2022/07/25 17:10:11;;;;;;;5.00;1.70;;;;;;;30.56;31.55;99936.38;9895823;29;20278;-78
2022/07/25 17:15:14;;;;;;;3.63;1.35;;;;;;;29.80;31.62;99960.72;9896958;29;20366;-78
2022/07/25 17:20:17;;;;;;;5.97;1.10;;;;;;;29.74;31.37;99959.59;9901892;29;20322;-77
2022/07/25 17:25:19;;;;;;;2.03;1.08;;;;;;;29.70;31.52;99961.72;9899558;29;20237;-78
2022/07/25 17:30:22;;;;;;;7.63;1.50;;;;;;;29.14;33.10;99964.41;9908387;29;21297;-78
2022/07/25 17:35:24;;;;;;;8.40;1.60;;;;;;;29.85;31.75;99969.66;9915008;29;20309;-78
2022/07/25 17:40:27;;;;;;;4.97;1.48;;;;;;;29.73;32.00;99966.63;9906984;29;20536;-77
2022/07/25 17:45:29;;;;;;;2.65;1.15;;;;;;;29.19;32.67;99961.88;9902652;29;20761;-77
2022/07/25 17:50:31;;;;;;;5.30;1.45;;;;;;;29.64;31.40;99956.47;9902089;29;20229;-78
2022/07/25 17:55:34;;;;;;;2.15;1.00;;;;;;;30.13;31.34;99953.84;9927512;29;20256;-78
2022/07/25 18:00:40;;;;;;;4.97;1.50;;;;;;;30.22;31.25;99954.06;9894070;29;20233;-79
2022/07/25 18:05:42;;;;;;;5.88;1.25;;;;;;;29.91;30.46;99967.09;9915340;29;20294;-78
2022/07/25 18:10:45;;;;;;;8.93;1.25;;;;;;;29.62;31.32;99961.84;9906457;29;20262;-78
2022/07/25 18:15:49;;;;;;;3.72;1.35;;;;;;;29.39;31.49;99959.03;9892433;29;20948;-78
2022/07/25 18:20:51;;;;;;;6.50;1.13;;;;;;;29.55;31.30;99962.00;9888232;29;20244;-77
2022/07/25 18:25:54;;;;;;;4.75;1.75;;;;;;;29.07;31.38;99968.19;9917838;29;20491;-79
2022/07/25 18:30:56;;;;;;;3.42;1.23;;;;;;;29.15;31.38;99974.66;9909757;29;20272;-78
2022/07/25 18:35:58;;;;;;;4.55;1.42;;;;;;;29.11;31.69;99976.78;9922856;29;20249;-78
2022/07/25 18:41:08;;;;;;;7.68;1.65;;;;;;;29.32;31.71;99976.44;9919143;29;20200;-78
2022/07/25 18:46:31;;;;;;;3.13;1.00;;;;;;;29.21;30.72;99982.38;9915411;29;20668;-78
2022/07/25 18:51:34;;;;;;;6.80;1.40;;;;;;;29.42;30.27;99989.84;9923181;29;20676;-78
2022/07/25 18:56:36;;;;;;;4.10;0.93;;;;;;;29.40;29.87;100000.16;9911767;29;20532;-77
2022/07/25 19:01:38;;;;;;;5.15;0.98;;;;;;;29.19;28.75;100007.94;9908774;29;20305;-79
2022/07/25 19:06:40;;;;;;;5.68;0.70;;;;;;;28.82;28.63;100031.94;9910455;29;20197;-79
2022/07/25 19:11:43;;;;;;;5.38;0.70;;;;;;;28.68;28.10;100023.50;9914130;29;20205;-79
2022/07/25 19:16:45;;;;;;;5.03;0.65;;;;;;;27.63;29.47;100026.44;9908653;29;20298;-79
2022/07/25 19:21:48;;;;;;;3.50;0.50;;;;;;;28.23;28.85;100032.34;9906233;29;20209;-79
2022/07/25 19:26:50;;;;;;;2.35;0.60;;;;;;;28.01;30.18;100042.44;9923192;29;20255;-78
2022/07/25 19:31:52;;;;;;;4.38;0.70;;;;;;;27.77;30.78;100052.94;9906971;29;20716;-80
2022/07/25 19:36:55;;;;;;;6.85;0.60;;;;;;;28.16;30.30;100060.38;9910297;29;20283;-79
2022/07/25 19:41:58;;;;;;;2.40;0.70;;;;;;;27.98;30.26;100074.09;9908948;29;20285;-80
2022/07/25 19:47:00;;;;;;;3.08;0.85;;;;;;;28.21;30.06;100075.06;9910947;29;20197;-79
2022/07/25 19:52:03;;;;;;;2.25;0.57;;;;;;;28.18;30.37;100070.19;9910265;29;20197;-79
2022/07/25 19:57:06;;;;;;;3.97;0.57;;;;;;;27.66;31.56;100083.84;9909117;29;20320;-79
2022/07/25 20:02:08;;;;;;;3.25;0.73;;;;;;;28.11;30.51;100076.03;9921633;29;20205;-80
2022/07/25 20:07:11;;;;;;;4.13;0.57;;;;;;;28.02;30.54;100078.56;9906189;29;20259;-79
2022/07/25 20:12:13;;;;;;;1.90;0.60;;;;;;;28.24;29.93;100085.72;9925197;29;20234;-79
2022/07/25 20:17:17;;;;;;;3.03;0.40;;;;;;;27.85;30.77;100086.13;9915434;29;20281;-79
2022/07/25 20:22:19;;;;;;;4.60;0.70;;;;;;;27.52;30.02;100090.50;9924689;29;20201;-79
2022/07/25 20:27:22;;;;;;;2.70;0.55;;;;;;;27.85;29.61;100086.13;9926237;29;20225;-79
2022/07/25 20:32:24;;;;;;;2.25;0.60;;;;;;;28.02;29.68;100078.56;9917581;29;20268;-80
2022/07/25 20:37:27;;;;;;;3.40;0.57;;;;;;;27.91;29.67;100093.03;9905838;29;20260;-80
2022/07/25 20:42:29;;;;;;;3.30;0.60;;;;;;;28.42;28.65;100090.44;9908313;29;20599;-80
2022/07/25 20:47:33;;;;;;;3.15;0.47;;;;;;;28.14;29.59;100091.59;9900891;29;20268;-79
2022/07/25 20:52:36;;;;;;;2.35;0.80;;;;;;;28.32;29.17;100094.25;9914416;29;20258;-79
2022/07/25 20:57:39;;;;;;;3.95;0.50;;;;;;;28.51;29.16;100094.44;9899580;29;20274;-79
2022/07/25 21:02:41;;;;;;;1.33;0.38;;;;;;;27.36;30.38;100093.13;9914365;29;20265;-81
2022/07/25 21:07:44;;;;;;;2.28;0.35;;;;;;;28.21;29.57;100103.81;9934853;29;20549;-79
2022/07/25 21:12:47;;;;;;;2.17;0.47;;;;;;;27.47;30.90;100110.25;9928403;29;20205;-79
2022/07/25 21:17:49;;;;;;;3.13;0.57;;;;;;;28.22;30.37;100105.47;9933844;29;20217;-79
2022/07/25 21:22:54;;;;;;;3.92;0.30;;;;;;;27.47;31.41;100111.09;9905949;29;20204;-78
2022/07/25 21:27:56;;;;;;;1.73;0.22;;;;;;;27.11;31.98;100122.03;9917459;29;20196;-79
2022/07/25 21:32:58;;;;;;;1.90;0.30;;;;;;;27.00;31.96;100126.19;9914036;29;20592;-82
2022/07/25 21:38:00;;;;;;;3.15;0.40;;;;;;;27.02;32.32;100124.53;9915737;29;20274;-81
2022/07/25 21:43:03;;;;;;;3.53;0.60;;;;;;;26.75;32.72;100150.06;9928103;29;20251;-79
2022/07/25 21:48:06;;;;;;;3.08;0.40;;;;;;;26.26;33.73;100162.50;9910079;29;20289;-79
2022/07/25 21:53:12;;;;;;;2.63;0.32;;;;;;;27.23;32.35;100160.91;9909636;29;20362;-80
2022/07/25 21:58:14;;;;;;;2.30;0.30;;;;;;;26.49;33.20;100170.66;9911788;29;20574;-80
2022/07/25 22:03:17;;;;;;;0.93;0.30;;;;;;;26.62;33.51;100173.88;9912683;29;20233;-80
2022/07/25 22:08:20;;;;;;;0.77;0.20;;;;;;;26.17;34.76;100184.22;9907318;29;20282;-80
2022/07/25 22:13:22;;;;;;;3.67;0.52;;;;;;;26.05;34.62;100191.22;9919574;29;20298;-81
2022/07/25 22:18:24;;;;;;;4.70;0.50;;;;;;;26.00;35.19;100194.47;9942304;29;20208;-80
2022/07/25 22:23:30;;;;;;;3.33;0.45;;;;;;;25.71;35.83;100188.72;9921506;29;20237;-80
2022/07/25 22:28:33;;;;;;;6.38;0.40;;;;;;;26.46;34.73;100194.44;9908814;29;20274;-80
2022/07/25 22:33:37;;;;;;;3.03;0.50;;;;;;;25.73;35.78;100202.63;9916058;29;20562;-79
2022/07/25 22:38:40;;;;;;;3.00;0.77;;;;;;;26.29;35.85;100206.72;9927799;29;20676;-80
2022/07/25 22:43:44;;;;;;;2.70;0.75;;;;;;;25.62;37.14;100210.41;9930447;29;20198;-80
2022/07/25 22:49:00;;;;;;;5.22;0.77;;;;;;;25.53;38.08;100225.13;9928435;29;20200;-82
2022/07/25 22:54:03;;;;;;;3.53;0.55;;;;;;;25.63;38.27;100227.19;9911014;29;20253;-81
2022/07/25 22:59:05;;;;;;;3.17;0.90;;;;;;;25.64;38.64;100228.00;9915061;29;20201;-80
2022/07/25 23:04:08;;;;;;;3.70;0.88;;;;;;;24.80;40.12;100235.06;9917641;29;20205;-79
2022/07/25 23:09:12;;;;;;;2.20;0.77;;;;;;;24.39;41.25;100238.09;9908967;29;20266;-79
2022/07/25 23:14:14;;;;;;;3.95;0.52;;;;;;;24.51;41.39;100237.78;9912405;29;20586;-79
2022/07/25 23:19:16;;;;;;;2.08;0.60;;;;;;;23.94;42.50;100245.09;9921803;29;20205;-80
2022/07/25 23:24:23;;;;;;;1.85;0.52;;;;;;;24.02;42.48;100236.19;9905047;29;20239;-80
2022/07/25 23:29:25;;;;;;;2.08;0.77;;;;;;;24.63;41.60;100236.66;9912561;29;20209;-80
2022/07/25 23:34:27;;;;;;;2.95;0.70;;;;;;;24.80;41.01;100247.34;9915221;29;20290;-80
2022/07/25 23:39:30;;;;;;;4.85;0.93;;;;;;;24.77;40.74;100253.88;9894614;30;20610;-80
2022/07/25 23:44:33;;;;;;;1.45;0.80;;;;;;;24.78;40.85;100252.66;9894812;29;20234;-80